Portada
METAR-TAF:

METAR-TAF

Aeropuertos :

Aeropuerto Internacional de Tinian

Tinian, Islas Marianas, Estados Unidos

latitud: 14-59N, longitud: 145-37E, altitud: 82 m

Observación

El informe se hizo hace 55 minutos, a las 22:54 UTC
Viento 11 kt del este
Temperatura 27°C
Humedad 89%
Presión 1015 hPa
Visibilidad: 11.3 km
Nubes dispersas a una altura de 1900 ft
Cielo nuboso a una altura de 15000 ft
chaparrones en las proximidades

METAR: PGWT 122254Z 09011KT 7SM VCSH SCT019 BKN150 27/25 A2996 RMK VCSH NE-E AND NW

Hora: 09:49 (23:49 UTC)

Pronóstico

El informe se hizo hace 1 hora y 34 minutos, a las 22:15 UTC
Pronóstico válido del 12 a las 22 UTC al 13 a las 18 UTC
Viento 11 kt del este
Visibilidad: 10 km
Nubes dispersas a una altura de 2000 ft
Nubes dispersas a una altura de 5000 ft

TAF: PGWT 122215Z 1222/1318 10011KT P6SM SCT020 SCT050

Observaciones y pronósticos meteorológicos de más de 4000 aeropuertos (mensajes METAR y TAF).

Los puntos amarillos y rojos representan las estaciones disponibles.

Ponga el ratón en el punto deseado para ver el nombre de la estación.

Haga clic para ver las observaciones y los pronósticos meteorológicos.

Para cambiar el mapa : haga clic en los botones verdes con una cruz de color negro para hacer un zoom, en el botón verde con un guión para alejar o en las flechas verdes para mapas adyacentes.


METAR-TAF: